Time;durP1;ratioP1;P1;durP2;ratioP2;P2;SDS_P1;SDS_P2;PMS_P1;PMS_P2;Temp;Humidity;BMP_temperature;BMP_pressure;BME280_temperature;BME280_humidity;BME280_pressure;Samples;Min_cycle;Max_cycle;Signal;HPM_P1;HPM_P2
2023/12/30 00:01:46;;;;;;;606.35;371.05;;;7.30;99.90;;;;;;4997472;28;20030;-52
2023/12/30 00:04:13;;;;;;;623.67;378.33;;;7.20;99.90;;;;;;4997418;28;20061;-52
2023/12/30 00:06:39;;;;;;;612.15;366.75;;;7.20;99.90;;;;;;4997665;28;20030;-52
2023/12/30 00:09:06;;;;;;;618.88;377.60;;;7.20;99.90;;;;;;4997326;28;20062;-52
2023/12/30 00:11:32;;;;;;;617.33;374.95;;;7.20;99.90;;;;;;4997430;28;20455;-52
2023/12/30 00:13:58;;;;;;;597.08;364.92;;;7.10;99.90;;;;;;4997355;28;20034;-52
2023/12/30 00:16:25;;;;;;;612.35;367.63;;;7.10;99.90;;;;;;4997093;28;20351;-52
2023/12/30 00:18:51;;;;;;;596.65;359.08;;;7.00;99.90;;;;;;4997229;28;20030;-52
2023/12/30 00:21:20;;;;;;;623.33;383.63;;;7.10;99.90;;;;;;4997284;28;20118;-52
2023/12/30 00:23:47;;;;;;;621.75;375.70;;;7.00;99.90;;;;;;4996824;28;20066;-53
2023/12/30 00:26:24;;;;;;;546.50;321.23;;;7.00;99.90;;;;;;4997116;28;20456;-52
2023/12/30 00:29:03;;;;;;;507.35;295.90;;;7.00;99.90;;;;;;4995791;28;20023;-52
2023/12/30 00:31:30;;;;;;;495.48;291.00;;;7.00;99.90;;;;;;4997280;28;20109;-52
2023/12/30 00:34:00;;;;;;;491.95;288.40;;;7.10;99.90;;;;;;4995610;28;20070;-52
2023/12/30 00:36:27;;;;;;;531.67;307.58;;;7.20;99.90;;;;;;4996873;28;20441;-52
2023/12/30 00:38:54;;;;;;;539.35;322.65;;;7.00;99.90;;;;;;4995304;28;20061;-52
2023/12/30 00:41:24;;;;;;;587.30;357.13;;;7.00;99.90;;;;;;4996807;28;20042;-53
2023/12/30 00:43:50;;;;;;;580.87;348.67;;;7.00;99.90;;;;;;4996742;28;20512;-52
2023/12/30 00:46:19;;;;;;;525.75;305.58;;;7.10;99.90;;;;;;4996783;28;20023;-52
2023/12/30 00:48:45;;;;;;;518.08;305.77;;;7.20;99.90;;;;;;4995400;28;20074;-52
2023/12/30 00:51:12;;;;;;;529.10;309.40;;;7.10;99.90;;;;;;4996672;28;20022;-52
2023/12/30 00:53:37;;;;;;;509.23;295.40;;;7.00;99.90;;;;;;4995234;28;20392;-53
2023/12/30 00:56:04;;;;;;;507.77;291.30;;;7.20;99.90;;;;;;4995361;28;20037;-52
2023/12/30 00:58:30;;;;;;;508.90;296.25;;;7.10;99.90;;;;;;4996586;28;20411;-52
2023/12/30 01:00:55;;;;;;;484.02;282.25;;;7.10;99.90;;;;;;4995223;28;20120;-52
2023/12/30 01:03:21;;;;;;;506.98;294.17;;;7.00;99.90;;;;;;4996398;28;20034;-52
2023/12/30 01:05:47;;;;;;;531.47;312.05;;;7.10;99.90;;;;;;4996715;28;20037;-52
2023/12/30 01:08:13;;;;;;;550.88;326.77;;;7.10;99.90;;;;;;4995039;28;20029;-52
2023/12/30 01:10:39;;;;;;;509.58;294.98;;;7.20;99.90;;;;;;4994921;28;20404;-53
2023/12/30 01:13:05;;;;;;;529.97;314.88;;;7.10;99.90;;;;;;4995092;28;20041;-52
2023/12/30 01:15:32;;;;;;;537.53;315.83;;;7.10;99.90;;;;;;4996343;28;20033;-52
2023/12/30 01:17:58;;;;;;;534.78;316.20;;;7.10;99.90;;;;;;4994888;28;20045;-52
2023/12/30 01:20:24;;;;;;;655.95;354.45;;;7.10;99.90;;;;;;4996330;28;20027;-52
2023/12/30 01:22:49;;;;;;;557.92;312.63;;;7.00;99.90;;;;;;4994947;28;20038;-52
2023/12/30 01:25:16;;;;;;;583.42;317.70;;;7.00;99.90;;;;;;4994679;28;20035;-52
2023/12/30 01:27:42;;;;;;;625.75;345.83;;;7.00;99.90;;;;;;4996168;28;20019;-52
2023/12/30 01:30:08;;;;;;;587.70;331.00;;;7.00;99.90;;;;;;4994903;28;20034;-52
2023/12/30 01:32:34;;;;;;;766.42;379.88;;;7.10;99.90;;;;;;4994850;28;20058;-52
2023/12/30 01:35:00;;;;;;;862.88;410.65;;;7.00;99.90;;;;;;4994895;28;20034;-52
2023/12/30 01:37:26;;;;;;;858.72;412.00;;;7.00;99.90;;;;;;4994664;28;20042;-52
2023/12/30 01:39:52;;;;;;;990.60;468.63;;;7.10;99.90;;;;;;4995939;28;20094;-52
2023/12/30 01:42:18;;;;;;;772.95;390.92;;;7.20;99.90;;;;;;4995938;28;20026;-52
2023/12/30 01:44:44;;;;;;;737.70;388.70;;;7.10;99.90;;;;;;4996063;28;20042;-52
2023/12/30 01:47:09;;;;;;;689.97;369.80;;;7.10;99.90;;;;;;4994796;28;20033;-52
2023/12/30 01:49:35;;;;;;;643.17;346.20;;;7.10;99.90;;;;;;4994725;28;20037;-52
2023/12/30 01:52:02;;;;;;;613.03;337.17;;;7.10;99.90;;;;;;4997629;28;20042;-52
2023/12/30 01:54:29;;;;;;;594.72;339.13;;;7.00;99.90;;;;;;4998670;28;20038;-52
2023/12/30 01:56:56;;;;;;;598.67;338.33;;;6.90;99.90;;;;;;4998851;28;20031;-52
2023/12/30 01:59:23;;;;;;;558.80;318.77;;;6.90;99.90;;;;;;4998570;28;20057;-52
2023/12/30 02:01:49;;;;;;;617.70;346.48;;;7.00;99.90;;;;;;4998522;28;20030;-52
2023/12/30 02:04:17;;;;;;;678.17;362.30;;;7.00;99.90;;;;;;4998450;28;20065;-52
2023/12/30 02:06:43;;;;;;;683.45;369.10;;;6.90;99.90;;;;;;4998392;28;20109;-52
2023/12/30 02:09:09;;;;;;;680.08;355.77;;;6.80;99.90;;;;;;4998416;28;20089;-52
2023/12/30 02:11:37;;;;;;;645.78;354.27;;;6.90;99.90;;;;;;4998392;28;20030;-52
2023/12/30 02:14:03;;;;;;;686.40;351.30;;;6.90;99.90;;;;;;4999599;28;20084;-52
2023/12/30 02:16:29;;;;;;;679.15;350.70;;;6.90;99.90;;;;;;4998376;28;20042;-52
2023/12/30 02:18:55;;;;;;;713.30;366.30;;;6.90;99.90;;;;;;4998203;28;20038;-52
2023/12/30 02:21:21;;;;;;;611.05;313.65;;;6.90;99.90;;;;;;4999482;28;20033;-52
2023/12/30 02:23:53;;;;;;;587.65;301.98;;;6.80;99.90;;;;;;4999249;28;20066;-52
2023/12/30 02:26:19;;;;;;;647.42;342.35;;;6.90;99.90;;;;;;4999346;28;20085;-52
2023/12/30 02:28:45;;;;;;;576.95;288.55;;;6.90;99.90;;;;;;4999262;28;20447;-52
2023/12/30 02:31:11;;;;;;;718.85;335.23;;;6.90;99.90;;;;;;4998020;28;20080;-53
2023/12/30 02:33:36;;;;;;;668.35;320.15;;;6.90;99.90;;;;;;4999192;28;20030;-52
2023/12/30 02:36:02;;;;;;;656.10;316.23;;;6.90;99.90;;;;;;4999222;28;20162;-52
2023/12/30 02:38:29;;;;;;;726.78;333.42;;;7.00;99.90;;;;;;4998873;28;20045;-53
2023/12/30 02:40:55;;;;;;;772.17;356.27;;;7.00;99.90;;;;;;4997890;28;20031;-52
2023/12/30 02:43:21;;;;;;;828.05;378.77;;;7.00;99.90;;;;;;4998939;28;20034;-52
2023/12/30 02:45:47;;;;;;;787.53;369.23;;;7.10;99.90;;;;;;4997684;28;20050;-52
2023/12/30 02:48:13;;;;;;;837.55;385.50;;;7.00;99.90;;;;;;4997698;28;20088;-52
2023/12/30 02:50:39;;;;;;;1127.07;507.73;;;7.00;99.90;;;;;;4997884;28;20105;-52
2023/12/30 02:53:05;;;;;;;693.45;330.98;;;6.90;99.90;;;;;;4997406;28;20043;-53
2023/12/30 02:55:31;;;;;;;525.22;263.83;;;6.90;99.90;;;;;;4997481;28;20385;-52
2023/12/30 02:57:57;;;;;;;520.55;264.17;;;6.90;99.90;;;;;;4998770;28;20033;-53
2023/12/30 03:00:24;;;;;;;616.55;310.35;;;6.90;99.90;;;;;;4998730;28;20034;-52
2023/12/30 03:02:49;;;;;;;650.95;325.73;;;6.90;99.90;;;;;;4998426;28;20033;-52
2023/12/30 03:05:15;;;;;;;606.97;304.55;;;6.90;99.90;;;;;;4997524;28;20027;-52
2023/12/30 03:07:41;;;;;;;584.22;290.98;;;6.90;99.90;;;;;;4997343;28;20022;-52
2023/12/30 03:10:08;;;;;;;408.13;212.32;;;6.80;99.90;;;;;;4998400;28;20057;-52
2023/12/30 03:12:34;;;;;;;460.45;238.27;;;6.80;99.90;;;;;;4998504;28;20507;-52
2023/12/30 03:14:59;;;;;;;435.30;229.93;;;6.80;99.90;;;;;;4997230;28;20030;-52
2023/12/30 03:17:25;;;;;;;482.77;243.23;;;6.90;99.90;;;;;;4998227;28;20034;-52
2023/12/30 03:19:51;;;;;;;504.80;255.10;;;6.80;99.90;;;;;;4997071;28;20034;-52
2023/12/30 03:22:17;;;;;;;465.73;238.13;;;6.90;99.90;;;;;;4998327;28;20022;-52
2023/12/30 03:24:43;;;;;;;424.80;218.93;;;7.00;99.90;;;;;;4997031;28;20480;-52
2023/12/30 03:27:09;;;;;;;398.15;201.98;;;7.00;99.90;;;;;;4996837;28;20038;-53
2023/12/30 03:29:35;;;;;;;353.08;176.55;;;7.10;99.90;;;;;;4996889;28;20041;-52
2023/12/30 03:32:00;;;;;;;343.30;175.77;;;7.10;99.90;;;;;;4997033;28;20117;-52
2023/12/30 03:34:26;;;;;;;364.25;190.70;;;7.10;99.90;;;;;;4998183;28;20026;-52
2023/12/30 03:36:52;;;;;;;376.65;190.32;;;7.10;99.90;;;;;;4996699;28;20034;-52
2023/12/30 03:39:20;;;;;;;349.98;179.45;;;7.00;99.90;;;;;;4998073;28;20109;-53
2023/12/30 03:41:46;;;;;;;312.75;161.82;;;7.00;99.90;;;;;;4996796;28;20058;-52
2023/12/30 03:44:12;;;;;;;327.58;165.48;;;7.10;99.90;;;;;;4996455;28;20113;-52
2023/12/30 03:46:40;;;;;;;311.73;158.57;;;7.10;99.90;;;;;;4997898;28;20030;-52
2023/12/30 03:49:06;;;;;;;291.40;148.05;;;7.20;99.90;;;;;;4996576;28;20027;-52
2023/12/30 03:51:31;;;;;;;298.45;153.55;;;7.20;99.90;;;;;;4996363;28;20495;-53
2023/12/30 03:53:57;;;;;;;283.63;147.05;;;7.20;99.90;;;;;;4996555;28;20022;-52
2023/12/30 03:56:23;;;;;;;288.88;148.93;;;7.20;99.90;;;;;;4996449;28;20483;-52
2023/12/30 03:58:49;;;;;;;280.35;145.98;;;7.10;99.90;;;;;;4997640;28;20033;-52
2023/12/30 04:01:15;;;;;;;301.17;152.50;;;7.00;99.90;;;;;;4996315;28;20042;-52
2023/12/30 04:03:41;;;;;;;290.95;153.50;;;7.00;99.90;;;;;;4996247;28;20030;-52
2023/12/30 04:06:16;;;;;;;290.40;148.20;;;6.90;99.90;;;;;;4996254;28;20033;-52
2023/12/30 04:08:41;;;;;;;293.08;154.05;;;6.90;99.90;;;;;;4996169;28;20050;-52
2023/12/30 04:11:07;;;;;;;284.88;148.98;;;7.00;99.90;;;;;;4996186;28;20019;-52
2023/12/30 04:13:33;;;;;;;295.85;148.60;;;6.90;99.90;;;;;;4996952;28;20077;-52
2023/12/30 04:15:59;;;;;;;286.10;144.77;;;6.90;99.90;;;;;;4995461;28;20188;-53
2023/12/30 04:18:25;;;;;;;283.80;145.10;;;6.90;99.90;;;;;;4996005;28;20522;-52
2023/12/30 04:20:51;;;;;;;279.13;146.50;;;6.80;99.90;;;;;;4996025;28;20041;-52
2023/12/30 04:23:16;;;;;;;283.60;139.57;;;6.80;99.90;;;;;;4997167;28;20050;-52
2023/12/30 04:25:42;;;;;;;272.50;140.27;;;6.80;99.90;;;;;;4995661;28;20043;-52
2023/12/30 04:28:08;;;;;;;285.73;148.82;;;6.80;99.90;;;;;;4997067;28;20032;-52
2023/12/30 04:30:34;;;;;;;288.05;146.48;;;6.80;99.90;;;;;;4997318;28;20030;-52
2023/12/30 04:33:00;;;;;;;291.80;147.85;;;7.00;99.90;;;;;;4995613;28;20038;-52
2023/12/30 04:35:25;;;;;;;299.13;153.02;;;6.90;99.90;;;;;;4997217;28;20096;-52
2023/12/30 04:37:52;;;;;;;296.25;150.65;;;6.90;99.90;;;;;;4995535;28;20034;-52
2023/12/30 04:40:20;;;;;;;276.23;143.32;;;6.90;99.90;;;;;;4995279;28;20042;-52
2023/12/30 04:42:46;;;;;;;270.10;139.75;;;7.00;99.90;;;;;;4996824;28;20460;-52
2023/12/30 04:45:12;;;;;;;266.38;138.05;;;7.00;99.90;;;;;;4995509;28;20034;-52
2023/12/30 04:47:40;;;;;;;255.63;133.48;;;7.10;99.90;;;;;;4995434;28;20031;-52
2023/12/30 04:50:06;;;;;;;263.70;133.07;;;7.20;99.90;;;;;;4995391;28;20037;-52
2023/12/30 04:52:32;;;;;;;312.42;155.63;;;7.20;99.90;;;;;;4995095;28;20046;-52
2023/12/30 04:54:58;;;;;;;283.60;146.98;;;7.30;99.90;;;;;;4995369;28;20031;-52
2023/12/30 04:57:24;;;;;;;279.38;144.27;;;7.20;99.90;;;;;;4995497;28;20053;-52
2023/12/30 04:59:51;;;;;;;331.80;170.68;;;7.00;99.90;;;;;;4996526;28;20022;-52
2023/12/30 05:02:17;;;;;;;303.10;160.68;;;7.00;99.90;;;;;;4995206;28;20499;-52
2023/12/30 05:04:43;;;;;;;265.05;138.60;;;7.00;99.90;;;;;;4995163;28;20084;-52
2023/12/30 05:07:09;;;;;;;259.88;133.93;;;7.10;99.90;;;;;;4995126;28;20441;-52
2023/12/30 05:09:38;;;;;;;263.55;135.38;;;7.00;99.90;;;;;;4996318;28;20022;-52
2023/12/30 05:12:04;;;;;;;251.13;130.73;;;7.00;99.90;;;;;;4996480;28;20109;-52
2023/12/30 05:14:30;;;;;;;365.45;160.30;;;7.00;99.90;;;;;;4996208;28;20034;-52
2023/12/30 05:16:55;;;;;;;325.27;159.85;;;6.90;99.90;;;;;;4996146;28;20391;-52
2023/12/30 05:19:21;;;;;;;335.85;165.18;;;6.80;99.90;;;;;;4996275;28;20451;-52
2023/12/30 05:21:51;;;;;;;293.85;150.48;;;6.80;99.90;;;;;;4996292;28;20117;-52
2023/12/30 05:24:18;;;;;;;;;;;6.80;99.90;;;;;;4996259;28;20050;-53
2023/12/30 05:26:44;;;;;;;224.38;116.47;;;6.80;99.90;;;;;;4996154;28;20286;-52
2023/12/30 05:29:10;;;;;;;213.43;109.95;;;6.80;99.90;;;;;;4996085;28;20114;-52
2023/12/30 05:31:36;;;;;;;218.40;112.90;;;6.90;99.90;;;;;;4996081;28;20483;-52
2023/12/30 05:34:02;;;;;;;211.38;111.32;;;7.00;99.90;;;;;;4996159;28;20113;-52
2023/12/30 05:36:28;;;;;;;223.63;118.20;;;7.00;99.90;;;;;;4995978;28;20380;-52
2023/12/30 05:38:54;;;;;;;234.98;120.63;;;7.10;99.90;;;;;;4995929;28;20042;-52
2023/12/30 05:41:20;;;;;;;214.50;116.57;;;7.00;99.90;;;;;;4995990;28;20030;-52
2023/12/30 05:43:45;;;;;;;208.35;111.05;;;7.10;99.90;;;;;;4995923;28;20031;-52
2023/12/30 05:46:15;;;;;;;197.63;104.88;;;7.10;99.90;;;;;;4995980;28;20039;-52
2023/12/30 05:48:41;;;;;;;197.55;104.53;;;7.00;99.90;;;;;;4996019;28;20089;-52
2023/12/30 05:51:07;;;;;;;198.65;106.93;;;7.00;99.90;;;;;;4995892;28;20034;-52
2023/12/30 05:53:33;;;;;;;268.00;141.48;;;7.10;99.90;;;;;;4995845;28;20253;-52
2023/12/30 05:55:59;;;;;;;259.23;138.60;;;7.20;99.90;;;;;;4995960;28;20030;-52
2023/12/30 05:58:26;;;;;;;262.08;135.48;;;7.10;99.90;;;;;;4995866;28;20046;-52
2023/12/30 06:00:52;;;;;;;256.65;129.88;;;7.10;99.90;;;;;;4995849;28;20120;-52
2023/12/30 06:03:18;;;;;;;258.80;128.88;;;7.10;99.90;;;;;;4996058;28;20109;-52
2023/12/30 06:05:43;;;;;;;238.95;124.80;;;7.10;99.90;;;;;;4995800;28;20101;-52
2023/12/30 06:08:09;;;;;;;247.73;127.88;;;7.10;99.90;;;;;;4995792;28;20023;-52
2023/12/30 06:10:35;;;;;;;260.67;132.35;;;7.10;99.90;;;;;;4995773;28;20038;-52
2023/12/30 06:13:01;;;;;;;248.85;130.50;;;7.00;99.90;;;;;;4995724;28;20376;-52
2023/12/30 06:15:27;;;;;;;243.88;127.35;;;7.00;99.90;;;;;;4995709;28;20023;-52
2023/12/30 06:17:53;;;;;;;260.85;129.60;;;7.00;99.90;;;;;;4995482;28;20519;-52
2023/12/30 06:20:21;;;;;;;242.68;120.70;;;7.10;99.90;;;;;;4995675;28;20026;-52
2023/12/30 06:22:46;;;;;;;231.40;113.95;;;7.00;99.90;;;;;;4995598;28;20480;-52
2023/12/30 06:25:12;;;;;;;246.88;126.55;;;7.00;99.90;;;;;;4995259;28;20088;-52
2023/12/30 06:27:38;;;;;;;241.82;128.82;;;6.90;99.90;;;;;;4995497;28;20042;-52
2023/12/30 06:30:05;;;;;;;236.10;122.82;;;6.90;99.90;;;;;;4995658;28;20030;-52
2023/12/30 06:32:31;;;;;;;235.15;123.90;;;6.90;99.90;;;;;;4995612;28;20069;-52
2023/12/30 06:34:57;;;;;;;228.50;120.30;;;7.00;99.90;;;;;;4995572;28;20027;-52
2023/12/30 06:37:23;;;;;;;228.20;116.20;;;7.00;99.90;;;;;;4996195;28;20366;-52
2023/12/30 06:39:48;;;;;;;208.65;110.60;;;7.00;99.90;;;;;;4998999;28;20038;-53
2023/12/30 06:42:14;;;;;;;213.98;114.60;;;7.00;99.90;;;;;;4998952;28;20480;-52
2023/12/30 06:44:41;;;;;;;222.40;114.25;;;7.00;99.90;;;;;;4999096;28;20029;-52
2023/12/30 06:47:06;;;;;;;213.35;115.32;;;7.00;99.90;;;;;;4999011;28;20050;-53
2023/12/30 06:49:32;;;;;;;208.23;113.18;;;6.90;99.90;;;;;;4998825;28;20023;-52
2023/12/30 06:51:58;;;;;;;211.80;113.50;;;6.90;99.90;;;;;;4998684;28;20066;-52
2023/12/30 06:54:25;;;;;;;234.82;125.07;;;6.90;99.90;;;;;;4998784;28;20401;-52
2023/12/30 06:56:53;;;;;;;232.85;125.78;;;6.90;99.90;;;;;;4998841;28;20036;-52
2023/12/30 06:59:19;;;;;;;214.32;114.00;;;7.00;99.90;;;;;;4998752;28;20026;-52
2023/12/30 07:01:45;;;;;;;227.40;116.63;;;7.10;99.90;;;;;;4998392;28;20038;-52
2023/12/30 07:04:11;;;;;;;220.20;119.38;;;7.20;99.90;;;;;;4998469;28;20100;-53
2023/12/30 07:06:37;;;;;;;225.50;121.03;;;7.20;99.90;;;;;;4998678;28;20069;-52
2023/12/30 07:09:03;;;;;;;230.10;123.13;;;7.10;99.90;;;;;;4998803;28;20049;-52
2023/12/30 07:11:29;;;;;;;231.65;125.82;;;7.00;99.90;;;;;;4998462;28;20026;-52
2023/12/30 07:13:55;;;;;;;226.95;121.35;;;7.10;99.90;;;;;;4998568;28;20019;-52
2023/12/30 07:16:20;;;;;;;227.40;121.60;;;7.10;99.90;;;;;;4998245;28;20042;-52
2023/12/30 07:18:46;;;;;;;301.13;156.43;;;7.10;99.90;;;;;;4998084;28;20045;-52
2023/12/30 07:21:12;;;;;;;282.70;148.57;;;7.20;99.90;;;;;;4998436;28;20392;-52
2023/12/30 07:23:38;;;;;;;267.17;143.80;;;7.20;99.90;;;;;;4998028;28;20034;-52
2023/12/30 07:26:04;;;;;;;274.13;146.00;;;7.30;99.90;;;;;;4998243;28;20037;-52
2023/12/30 07:28:30;;;;;;;240.25;126.40;;;7.30;99.90;;;;;;4998256;28;20022;-52
2023/12/30 07:30:55;;;;;;;250.57;133.93;;;7.30;99.90;;;;;;4998196;28;20030;-52
2023/12/30 07:33:22;;;;;;;264.25;138.85;;;7.20;99.90;;;;;;4998043;28;20057;-52
2023/12/30 07:35:47;;;;;;;250.40;131.20;;;7.20;99.90;;;;;;4997019;28;20031;-52
2023/12/30 07:38:13;;;;;;;272.27;136.80;;;7.20;99.90;;;;;;4997875;28;20030;-52
2023/12/30 07:40:39;;;;;;;264.08;139.30;;;7.20;99.90;;;;;;4998109;28;20049;-52
2023/12/30 07:43:05;;;;;;;261.05;139.77;;;7.30;99.90;;;;;;4997974;28;20537;-52
2023/12/30 07:45:31;;;;;;;256.25;139.35;;;7.20;99.90;;;;;;4997963;28;20101;-52
2023/12/30 07:47:57;;;;;;;262.02;138.00;;;7.30;99.90;;;;;;4997787;28;20030;-52
2023/12/30 07:50:23;;;;;;;264.90;137.70;;;7.30;99.90;;;;;;4996820;28;20110;-53
2023/12/30 07:52:49;;;;;;;281.08;146.55;;;7.20;99.90;;;;;;4997501;28;20061;-52
2023/12/30 07:55:16;;;;;;;281.25;152.02;;;7.30;99.90;;;;;;4997724;28;20435;-52
2023/12/30 07:57:42;;;;;;;285.85;149.80;;;7.30;99.90;;;;;;4997710;28;20084;-52
2023/12/30 08:00:08;;;;;;;282.40;147.82;;;7.40;99.90;;;;;;4997596;28;20047;-52
2023/12/30 08:02:41;;;;;;;300.15;161.85;;;7.40;99.90;;;;;;4997535;28;20049;-52
2023/12/30 08:05:07;;;;;;;292.25;160.55;;;7.40;99.90;;;;;;4996347;28;20050;-52
2023/12/30 08:07:33;;;;;;;295.58;160.30;;;7.50;99.90;;;;;;4997411;28;20033;-52
2023/12/30 08:09:58;;;;;;;316.40;166.35;;;7.70;99.90;;;;;;4997458;28;20030;-52
2023/12/30 08:12:24;;;;;;;320.23;171.27;;;7.80;99.90;;;;;;4997344;28;20037;-52
2023/12/30 08:14:50;;;;;;;394.83;203.88;;;8.00;99.90;;;;;;4997315;28;20102;-52
2023/12/30 08:17:16;;;;;;;371.98;196.98;;;8.10;99.90;;;;;;4996752;28;20042;-52
2023/12/30 08:19:42;;;;;;;390.92;199.98;;;8.20;99.90;;;;;;4997271;28;20464;-52
2023/12/30 08:22:08;;;;;;;410.50;212.15;;;8.20;99.90;;;;;;4997157;28;20074;-52
2023/12/30 08:24:33;;;;;;;358.00;186.07;;;8.20;99.90;;;;;;4997134;28;20037;-52
2023/12/30 08:26:59;;;;;;;327.40;173.73;;;8.20;99.90;;;;;;4996993;28;20357;-53
2023/12/30 08:29:25;;;;;;;347.20;174.48;;;8.30;99.90;;;;;;4997208;28;20472;-52
2023/12/30 08:31:51;;;;;;;291.80;160.90;;;8.30;99.90;;;;;;4997011;28;20026;-52
2023/12/30 08:34:17;;;;;;;283.17;155.00;;;8.40;99.90;;;;;;4995840;28;20030;-52
2023/12/30 08:36:43;;;;;;;282.73;156.48;;;8.50;99.90;;;;;;4996812;28;20042;-52
2023/12/30 08:39:09;;;;;;;332.88;169.55;;;8.60;99.90;;;;;;4996700;28;20038;-52
2023/12/30 08:41:35;;;;;;;413.50;192.45;;;8.70;99.90;;;;;;4996927;28;20031;-52
2023/12/30 08:44:02;;;;;;;355.10;172.82;;;8.80;99.90;;;;;;4996614;28;20041;-52
2023/12/30 08:46:28;;;;;;;262.70;141.82;;;8.80;99.90;;;;;;4996979;28;20042;-52
2023/12/30 08:48:54;;;;;;;252.38;138.45;;;8.90;99.90;;;;;;4997000;28;20022;-52
2023/12/30 08:51:20;;;;;;;236.27;128.05;;;8.90;99.90;;;;;;4996593;28;20019;-52
2023/12/30 08:53:45;;;;;;;238.02;130.65;;;9.00;99.90;;;;;;4996546;28;20407;-52
2023/12/30 08:56:12;;;;;;;228.88;129.88;;;9.00;99.90;;;;;;4996553;28;20026;-52
2023/12/30 08:58:38;;;;;;;217.60;121.47;;;9.00;99.90;;;;;;4996536;28;20461;-52
2023/12/30 09:01:04;;;;;;;212.30;121.28;;;8.90;99.90;;;;;;4996323;28;20034;-52
2023/12/30 09:03:30;;;;;;;234.23;125.30;;;8.90;99.90;;;;;;4996385;28;20041;-52
2023/12/30 09:05:56;;;;;;;250.93;132.93;;;8.90;99.90;;;;;;4996473;28;20030;-52
2023/12/30 09:08:22;;;;;;;259.42;143.80;;;9.00;99.90;;;;;;4996331;28;20045;-52
2023/12/30 09:10:47;;;;;;;280.98;152.43;;;9.00;99.90;;;;;;4996426;28;20018;-52
2023/12/30 09:13:13;;;;;;;328.35;180.32;;;9.10;99.90;;;;;;4996297;28;20034;-52
2023/12/30 09:15:39;;;;;;;319.52;172.10;;;9.10;99.90;;;;;;4996168;28;20034;-53
2023/12/30 09:18:05;;;;;;;298.05;170.15;;;9.10;99.90;;;;;;4996109;28;20396;-52
2023/12/30 09:20:31;;;;;;;297.77;162.60;;;9.10;99.90;;;;;;4996199;28;20149;-52
2023/12/30 09:22:57;;;;;;;302.52;166.65;;;9.20;99.90;;;;;;4996175;28;20027;-52
2023/12/30 09:25:24;;;;;;;316.88;176.10;;;9.30;99.90;;;;;;4996508;28;20117;-52
2023/12/30 09:27:50;;;;;;;351.75;198.80;;;9.40;99.90;;;;;;4996101;28;20384;-52
2023/12/30 09:30:16;;;;;;;321.60;176.95;;;9.50;99.90;;;;;;4996163;28;20050;-52
2023/12/30 09:32:41;;;;;;;332.77;181.38;;;9.50;99.90;;;;;;4996024;28;20531;-52
2023/12/30 09:35:08;;;;;;;337.52;174.45;;;9.50;99.90;;;;;;4995998;28;20042;-53
2023/12/30 09:37:34;;;;;;;320.83;179.80;;;9.60;99.90;;;;;;4995967;28;20029;-52
2023/12/30 09:39:59;;;;;;;322.70;181.60;;;9.60;99.90;;;;;;4995944;28;20468;-52
2023/12/30 09:42:27;;;;;;;368.13;200.57;;;9.60;99.90;;;;;;4995848;28;20391;-52
2023/12/30 09:44:54;;;;;;;330.40;179.32;;;9.70;99.90;;;;;;4996036;28;20058;-52
2023/12/30 09:47:22;;;;;;;317.02;162.88;;;9.70;99.90;;;;;;4995915;28;20030;-52
2023/12/30 09:49:48;;;;;;;346.15;193.98;;;9.80;99.90;;;;;;4995847;28;20053;-53
2023/12/30 09:52:15;;;;;;;360.13;206.00;;;9.80;99.90;;;;;;4996192;28;20038;-52
2023/12/30 09:54:40;;;;;;;318.85;177.57;;;10.00;99.90;;;;;;4995979;28;20121;-53
2023/12/30 09:57:06;;;;;;;284.75;153.48;;;10.10;99.90;;;;;;4995843;28;20062;-52
2023/12/30 09:59:41;;;;;;;263.88;145.30;;;10.20;99.90;;;;;;4995810;28;20037;-52
2023/12/30 10:02:10;;;;;;;264.23;148.65;;;10.20;99.90;;;;;;4995795;28;20514;-52
2023/12/30 10:04:37;;;;;;;261.98;143.93;;;10.40;99.90;;;;;;4995528;28;20027;-53
2023/12/30 10:07:03;;;;;;;265.42;137.80;;;10.40;99.90;;;;;;4995902;28;20027;-52
2023/12/30 10:09:32;;;;;;;279.85;142.25;;;10.30;99.90;;;;;;4995689;28;20030;-52
2023/12/30 10:11:58;;;;;;;256.20;141.23;;;10.50;99.90;;;;;;4995865;28;20084;-52
2023/12/30 10:14:24;;;;;;;271.20;146.52;;;10.60;99.90;;;;;;4999558;28;20069;-52
2023/12/30 10:16:50;;;;;;;265.23;146.38;;;10.70;99.90;;;;;;4999394;28;20030;-53
2023/12/30 10:19:18;;;;;;;280.05;156.63;;;10.80;99.90;;;;;;4999486;28;20038;-52
2023/12/30 10:21:44;;;;;;;291.27;151.40;;;10.90;99.90;;;;;;4999637;28;20039;-52
2023/12/30 10:24:10;;;;;;;273.08;152.60;;;10.90;99.90;;;;;;4999313;28;20022;-52
2023/12/30 10:26:39;;;;;;;279.73;152.98;;;10.90;99.90;;;;;;4999409;28;20026;-52
2023/12/30 10:29:08;;;;;;;272.42;150.60;;;10.90;99.90;;;;;;4999267;28;20042;-52
2023/12/30 10:31:34;;;;;;;291.05;150.75;;;11.00;99.90;;;;;;4999193;28;20022;-53
2023/12/30 10:34:00;;;;;;;280.20;146.23;;;11.00;99.90;;;;;;4999214;28;20026;-52
2023/12/30 10:36:29;;;;;;;276.35;145.90;;;11.10;99.90;;;;;;4999060;28;20057;-53
2023/12/30 10:38:55;;;;;;;286.13;149.55;;;11.20;99.90;;;;;;4999191;28;20038;-53
2023/12/30 10:41:21;;;;;;;305.25;158.30;;;11.30;99.90;;;;;;4999098;28;20084;-53
2023/12/30 10:43:47;;;;;;;296.45;154.13;;;11.40;99.90;;;;;;4998951;28;20093;-52
2023/12/30 10:46:13;;;;;;;304.67;157.10;;;11.40;99.90;;;;;;4999081;28;20026;-53
2023/12/30 10:48:56;;;;;;;292.77;157.77;;;11.40;99.90;;;;;;4997713;28;20022;-53
2023/12/30 10:51:28;;;;;;;299.58;156.27;;;11.40;99.90;;;;;;4999003;28;20065;-53
2023/12/30 10:54:05;;;;;;;276.73;154.65;;;11.30;99.90;;;;;;4998921;28;20050;-52
2023/12/30 10:56:39;;;;;;;290.13;154.18;;;11.50;99.90;;;;;;4998866;28;20161;-53
2023/12/30 10:59:09;;;;;;;278.25;153.23;;;11.60;99.90;;;;;;4998835;28;20069;-52
2023/12/30 11:01:36;;;;;;;258.77;146.65;;;11.80;99.90;;;;;;4998672;28;20026;-52
2023/12/30 11:04:10;;;;;;;283.38;156.52;;;11.90;99.90;;;;;;4998610;28;20033;-52
2023/12/30 11:06:56;;;;;;;277.58;149.52;;;11.90;99.90;;;;;;4998467;28;20472;-53
2023/12/30 11:09:27;;;;;;;259.13;140.75;;;12.00;99.90;;;;;;4998643;28;20054;-53
2023/12/30 11:11:54;;;;;;;259.73;140.23;;;12.10;99.90;;;;;;4998601;28;20050;-52
2023/12/30 11:14:21;;;;;;;272.55;140.98;;;12.20;99.90;;;;;;4998471;28;20062;-52
2023/12/30 11:16:50;;;;;;;269.55;142.73;;;12.20;99.90;;;;;;4998356;28;20487;-53
2023/12/30 11:19:26;;;;;;;275.98;148.18;;;12.30;99.90;;;;;;4998373;28;20471;-53
2023/12/30 11:21:54;;;;;;;380.38;222.18;;;12.30;99.90;;;;;;4998218;28;20463;-53
2023/12/30 11:24:20;;;;;;;286.95;154.30;;;12.30;99.90;;;;;;4998127;28;20058;-52
2023/12/30 11:26:47;;;;;;;234.43;128.65;;;12.20;99.90;;;;;;4998178;28;20018;-53
2023/12/30 11:29:25;;;;;;;230.25;118.53;;;12.20;99.90;;;;;;4998282;28;20037;-53
2023/12/30 11:31:52;;;;;;;212.20;116.07;;;12.20;99.90;;;;;;4998133;28;20054;-53
2023/12/30 11:34:19;;;;;;;214.73;120.80;;;12.20;99.90;;;;;;4998226;28;20038;-53
2023/12/30 11:36:46;;;;;;;209.95;119.03;;;12.20;99.90;;;;;;4997942;28;20052;-53
2023/12/30 11:39:33;;;;;;;201.55;117.65;;;12.20;99.90;;;;;;4997995;28;20046;-52
2023/12/30 11:42:01;;;;;;;211.85;117.00;;;12.30;99.90;;;;;;4997890;28;20038;-52
2023/12/30 11:44:30;;;;;;;208.82;124.47;;;12.30;99.90;;;;;;4997863;28;20415;-53
2023/12/30 11:46:56;;;;;;;211.85;121.97;;;12.30;99.90;;;;;;4997950;28;20113;-52
2023/12/30 11:49:24;;;;;;;222.70;122.97;;;12.30;99.90;;;;;;4997843;28;20026;-52
2023/12/30 11:51:50;;;;;;;222.15;127.07;;;12.20;99.90;;;;;;4997612;28;20029;-53
2023/12/30 11:54:16;;;;;;;224.60;122.25;;;12.40;99.90;;;;;;4997795;28;20076;-53
2023/12/30 11:56:43;;;;;;;231.48;127.00;;;12.40;99.90;;;;;;4997683;28;20034;-52
2023/12/30 11:59:09;;;;;;;201.38;119.05;;;12.30;99.90;;;;;;4997693;28;20022;-53
2023/12/30 12:01:35;;;;;;;215.43;119.25;;;12.40;99.90;;;;;;4997638;28;20052;-52
2023/12/30 12:04:01;;;;;;;210.23;117.45;;;12.40;99.80;;;;;;4997488;28;20073;-53
2023/12/30 12:06:27;;;;;;;226.35;122.82;;;12.30;99.80;;;;;;4997491;28;20506;-52
2023/12/30 12:08:53;;;;;;;236.63;131.18;;;12.30;99.70;;;;;;4997532;28;20038;-53
2023/12/30 12:11:19;;;;;;;224.68;122.43;;;12.30;99.80;;;;;;4997382;28;20077;-53
2023/12/30 12:13:46;;;;;;;235.50;130.10;;;12.30;99.90;;;;;;4997346;28;20416;-54